Time;durP1;ratioP1;P1;durP2;ratioP2;P2;SDS_P1;SDS_P2;PMS_P1;PMS_P2;Temp;Humidity;BMP_temperature;BMP_pressure;BME280_temperature;BME280_humidity;BME280_pressure;Samples;Min_cycle;Max_cycle;Signal;HPM_P1;HPM_P2
2021/07/27 00:00:56;;;;;;;7.25;5.93;;;19.20;72.20;;;;;;5012793;28;20029;-86
2021/07/27 00:03:25;;;;;;;9.40;5.55;;;19.20;72.70;;;;;;5011592;28;20026;-85
2021/07/27 00:05:52;;;;;;;7.38;5.70;;;19.20;72.70;;;;;;5011636;28;20040;-86
2021/07/27 00:08:18;;;;;;;8.73;5.20;;;19.20;73.00;;;;;;5011455;28;20075;-85
2021/07/27 00:10:43;;;;;;;9.02;5.35;;;19.10;72.40;;;;;;5012506;28;20495;-86
2021/07/27 00:13:09;;;;;;;8.10;5.35;;;19.10;73.10;;;;;;5014855;28;20041;-86
2021/07/27 00:15:35;;;;;;;7.53;5.22;;;19.20;73.80;;;;;;5012714;28;20026;-85
2021/07/27 00:18:01;;;;;;;8.35;5.57;;;19.20;73.20;;;;;;5011369;28;20056;-86
2021/07/27 00:20:27;;;;;;;7.57;5.85;;;19.20;73.10;;;;;;5011515;28;20022;-85
2021/07/27 00:22:52;;;;;;;8.30;5.15;;;19.20;73.30;;;;;;5012584;28;20038;-86
2021/07/27 00:25:18;;;;;;;8.38;5.85;;;19.20;73.80;;;;;;5014203;28;20030;-85
2021/07/27 00:27:44;;;;;;;9.60;5.65;;;19.20;73.30;;;;;;5006718;28;20125;-85
2021/07/27 00:30:11;;;;;;;7.97;5.50;;;19.10;73.70;;;;;;5012541;28;20034;-85
2021/07/27 00:32:42;;;;;;;8.98;5.78;;;19.20;73.50;;;;;;5012121;28;20072;-86
2021/07/27 00:35:09;;;;;;;7.70;5.60;;;19.10;73.90;;;;;;5013766;28;20026;-86
2021/07/27 00:37:35;;;;;;;8.80;5.65;;;19.10;74.50;;;;;;5014538;28;20018;-86
2021/07/27 00:40:02;;;;;;;8.52;5.00;;;19.10;74.50;;;;;;5007472;28;20129;-85
2021/07/27 00:42:28;;;;;;;7.47;5.97;;;19.10;75.80;;;;;;5010907;28;20050;-85
2021/07/27 00:44:54;;;;;;;7.03;5.30;;;19.10;74.10;;;;;;5012100;28;20064;-85
2021/07/27 00:47:20;;;;;;;11.15;5.43;;;19.00;74.60;;;;;;5010981;28;20049;-85
2021/07/27 00:49:45;;;;;;;7.47;5.40;;;19.00;74.10;;;;;;5012139;28;20487;-85
2021/07/27 00:52:12;;;;;;;7.97;5.38;;;19.00;74.30;;;;;;5014177;28;20045;-84
2021/07/27 00:54:38;;;;;;;9.63;6.10;;;19.00;74.30;;;;;;5010337;28;20026;-84
2021/07/27 00:57:04;;;;;;;8.20;5.32;;;18.90;74.60;;;;;;5010966;28;20386;-85
2021/07/27 00:59:30;;;;;;;9.73;5.60;;;18.90;74.70;;;;;;5010464;28;20030;-84
2021/07/27 01:01:56;;;;;;;7.97;5.72;;;18.90;75.40;;;;;;5012082;28;20033;-85
2021/07/27 01:04:22;;;;;;;8.65;5.85;;;18.80;74.80;;;;;;5006584;28;20022;-85
2021/07/27 01:06:48;;;;;;;8.32;5.78;;;18.80;75.30;;;;;;5011634;28;20037;-85
2021/07/27 01:09:14;;;;;;;8.20;6.05;;;18.80;75.10;;;;;;5011647;28;20394;-86
2021/07/27 01:11:41;;;;;;;7.53;5.07;;;18.80;75.20;;;;;;5010316;28;20037;-85
2021/07/27 01:14:07;;;;;;;7.25;5.88;;;18.90;75.30;;;;;;5010389;28;20026;-84
2021/07/27 01:16:34;;;;;;;8.05;5.80;;;18.90;75.40;;;;;;5012869;28;20064;-85
2021/07/27 01:43:21;;;;;;;8.45;5.10;;;18.60;75.50;;;;;;5014237;28;20025;-85
2021/07/27 01:45:48;;;;;;;9.18;5.95;;;18.60;75.20;;;;;;5011122;28;20056;-85
2021/07/27 01:48:16;;;;;;;9.57;5.78;;;18.60;75.30;;;;;;5010837;28;20065;-85
2021/07/27 01:50:42;;;;;;;8.30;5.53;;;18.60;75.50;;;;;;5010767;28;20053;-85
2021/07/27 01:53:09;;;;;;;7.10;5.30;;;18.60;75.60;;;;;;5009714;28;20053;-85
2021/07/27 01:55:35;;;;;;;8.43;6.30;;;18.60;76.20;;;;;;5008244;28;20022;-85
2021/07/27 01:58:01;;;;;;;9.18;5.35;;;18.50;75.50;;;;;;5011594;28;20022;-84
2021/07/27 02:00:27;;;;;;;6.78;5.47;;;18.50;76.00;;;;;;5010471;28;20033;-85
2021/07/27 02:02:53;;;;;;;7.97;5.72;;;18.50;76.70;;;;;;5009395;28;20032;-85
2021/07/27 02:05:18;;;;;;;9.10;5.60;;;18.50;76.40;;;;;;5010227;28;20061;-84
2021/07/27 02:08:02;;;;;;;7.18;4.93;;;18.50;76.40;;;;;;5010433;28;20030;-85
2021/07/27 02:10:28;;;;;;;7.75;5.57;;;18.50;75.70;;;;;;5008959;28;20026;-85
2021/07/27 02:13:01;;;;;;;8.77;5.85;;;18.40;75.50;;;;;;5010940;28;20018;-85
2021/07/27 02:15:45;;;;;;;6.55;5.45;;;18.40;76.30;;;;;;5011688;28;20037;-85
2021/07/27 02:18:10;;;;;;;8.93;5.60;;;18.40;75.70;;;;;;5010178;28;20499;-85
2021/07/27 02:20:42;;;;;;;7.70;5.63;;;18.30;76.20;;;;;;5008512;28;20040;-85
2021/07/27 02:23:08;;;;;;;6.40;5.22;;;18.30;76.40;;;;;;5010401;28;20022;-85
2021/07/27 02:25:33;;;;;;;8.73;5.35;;;18.30;76.20;;;;;;5012527;28;20029;-85
2021/07/27 02:28:00;;;;;;;6.22;4.82;;;18.40;76.30;;;;;;5005592;28;20076;-85
2021/07/27 02:30:27;;;;;;;7.15;5.53;;;18.30;76.70;;;;;;5009742;28;20034;-85
2021/07/27 02:32:52;;;;;;;7.65;5.47;;;18.40;77.30;;;;;;5010073;28;20033;-86
2021/07/27 02:35:21;;;;;;;8.10;5.50;;;18.30;77.10;;;;;;5009776;28;20026;-84
2021/07/27 02:37:47;;;;;;;6.65;4.93;;;18.30;76.70;;;;;;5011347;28;20038;-85
2021/07/27 02:40:13;;;;;;;10.32;5.57;;;18.30;76.50;;;;;;5012085;28;20434;-84
2021/07/27 02:42:39;;;;;;;7.70;5.20;;;18.30;77.10;;;;;;5008653;28;20088;-85
2021/07/27 02:45:13;;;;;;;8.77;5.55;;;18.30;77.00;;;;;;5008589;28;20018;-85
2021/07/27 02:47:39;;;;;;;;;;;18.40;76.60;;;;;;5009405;28;20120;-85
2021/07/27 02:50:05;;;;;;;;;;;18.30;75.90;;;;;;5008633;28;19918;-85
2021/07/27 02:52:33;;;;;;;;;;;18.30;76.60;;;;;;5011085;28;20008;-85
2021/07/27 02:54:59;;;;;;;;;;;18.30;76.20;;;;;;5007010;28;20270;-85
2021/07/27 02:57:24;;;;;;;;;;;18.30;76.50;;;;;;5010015;28;19909;-84
2021/07/27 02:59:50;;;;;;;;;;;18.30;76.40;;;;;;5010089;28;19916;-85
2021/07/27 03:02:22;;;;;;;;;;;18.40;76.10;;;;;;5011522;28;19955;-85
2021/07/27 03:04:47;;;;;;;;;;;18.40;76.40;;;;;;5009879;28;19940;-85
2021/07/27 03:07:19;;;;;;;;;;;18.40;76.10;;;;;;5012078;28;19906;-85
2021/07/27 03:12:29;;;;;;;;;;;18.50;76.40;;;;;;5011437;28;19963;-84
2021/07/27 03:15:02;;;;;;;;;;;18.40;77.20;;;;;;5009816;28;19917;-85
2021/07/27 03:17:28;;;;;;;;;;;18.40;76.10;;;;;;5010958;28;19909;-85
2021/07/27 03:19:53;;;;;;;;;;;18.40;76.40;;;;;;5010253;28;19910;-85
2021/07/27 03:22:22;;;;;;;;;;;18.40;76.30;;;;;;5012828;28;19951;-85
2021/07/27 03:24:48;;;;;;;;;;;18.40;77.00;;;;;;5011004;28;19936;-85
2021/07/27 03:27:13;;;;;;;;;;;18.30;76.90;;;;;;5009875;28;20348;-85
2021/07/27 03:29:39;;;;;;;;;;;18.30;76.50;;;;;;5009108;28;19909;-85
2021/07/27 03:32:04;;;;;;;;;;;18.30;77.10;;;;;;5009534;28;19922;-85
2021/07/27 03:34:31;;;;;;;;;;;18.30;77.30;;;;;;5011130;28;19925;-85
2021/07/27 03:36:56;;;;;;;;;;;18.30;77.80;;;;;;5011614;28;19956;-85
2021/07/27 03:39:22;;;;;;;;;;;18.20;77.40;;;;;;5009776;28;19940;-85
2021/07/27 03:41:48;;;;;;;;;;;18.20;76.80;;;;;;5009786;28;19989;-85
2021/07/27 03:44:17;;;;;;;;;;;18.20;76.90;;;;;;5009565;28;19906;-85
2021/07/27 03:46:45;;;;;;;;;;;18.20;76.90;;;;;;5010740;28;20489;-85
2021/07/27 03:49:11;;;;;;;;;;;18.10;76.70;;;;;;5012832;28;19944;-85
2021/07/27 03:51:36;;;;;;;;;;;18.10;77.70;;;;;;5010838;28;20358;-85
2021/07/27 03:54:02;;;;;;;;;;;18.10;76.70;;;;;;5008127;28;19910;-85
2021/07/27 03:56:27;;;;;;;;;;;18.10;76.90;;;;;;5008305;28;19905;-85
2021/07/27 03:58:54;;;;;;;;;;;18.20;77.30;;;;;;5008584;28;19971;-84
2021/07/27 04:01:20;;;;;;;;;;;18.10;77.20;;;;;;5010682;28;19905;-85
2021/07/27 04:03:45;;;;;;;;;;;18.20;77.20;;;;;;5008374;28;20012;-85
2021/07/27 04:06:14;;;;;;;;;;;18.20;77.90;;;;;;5007219;28;19917;-85
2021/07/27 04:08:39;;;;;;;;;;;18.20;78.00;;;;;;5010533;28;19912;-85
2021/07/27 04:11:05;;;;;;;;;;;18.20;77.90;;;;;;5010260;28;20007;-85
2021/07/27 04:13:32;;;;;;;;;;;18.20;77.20;;;;;;5009826;28;19917;-85
2021/07/27 04:15:58;;;;;;;;;;;18.10;77.20;;;;;;5009292;28;20294;-85
2021/07/27 04:18:23;;;;;;;;;;;18.10;77.70;;;;;;5008773;28;19909;-85
2021/07/27 04:20:49;;;;;;;;;;;18.10;77.60;;;;;;5007398;28;20389;-85
2021/07/27 04:23:15;;;;;;;;;;;18.10;77.80;;;;;;5008498;28;19912;-85
2021/07/27 04:25:40;;;;;;;;;;;18.00;77.40;;;;;;5009256;28;19910;-85
2021/07/27 04:28:05;;;;;;;;;;;18.00;77.80;;;;;;5010474;28;19916;-85
2021/07/27 04:30:33;;;;;;;;;;;18.00;78.30;;;;;;5009361;28;19936;-85
2021/07/27 04:32:58;;;;;;;;;;;18.00;78.10;;;;;;5004971;28;19995;-85
2021/07/27 04:35:24;;;;;;;;;;;18.00;77.80;;;;;;5009996;28;20514;-84
2021/07/27 04:37:52;;;;;;;;;;;18.00;78.60;;;;;;5009824;28;19924;-84
2021/07/27 04:40:18;;;;;;;;;;;18.00;78.00;;;;;;5011405;28;20358;-85
2021/07/27 04:42:44;;;;;;;;;;;18.00;78.00;;;;;;5010780;28;19912;-85
2021/07/27 04:45:09;;;;;;;;;;;18.00;78.70;;;;;;5013152;28;19913;-84
2021/07/27 04:47:35;;;;;;;;;;;18.00;78.30;;;;;;5010867;28;19905;-84
2021/07/27 04:50:00;;;;;;;;;;;18.00;78.20;;;;;;5010998;28;20378;-84
2021/07/27 04:52:27;;;;;;;;;;;18.00;77.90;;;;;;5015256;28;19936;-84
2021/07/27 04:54:55;;;;;;;;;;;18.00;78.30;;;;;;5013656;28;19955;-84
2021/07/27 04:57:20;;;;;;;;;;;18.00;78.80;;;;;;5011709;28;19905;-84
2021/07/27 04:59:46;;;;;;;;;;;18.00;79.30;;;;;;5011469;28;19909;-85
2021/07/27 05:02:12;;;;;;;;;;;18.00;78.90;;;;;;5011952;28;19905;-85
2021/07/27 05:04:37;;;;;;;;;;;18.00;78.90;;;;;;5013916;28;19953;-85
2021/07/27 05:07:03;;;;;;;;;;;18.00;79.10;;;;;;5007495;28;19909;-85
2021/07/27 05:09:29;;;;;;;;;;;18.10;78.60;;;;;;5011165;28;19911;-85
2021/07/27 05:11:57;;;;;;;;;;;18.10;78.40;;;;;;5011451;28;19967;-85
2021/07/27 05:14:23;;;;;;;;;;;18.10;80.20;;;;;;5011570;28;19906;-85
2021/07/27 05:16:49;;;;;;;;;;;18.10;79.10;;;;;;5011206;28;19918;-85
2021/07/27 05:19:14;;;;;;;;;;;18.10;80.20;;;;;;5013670;28;20251;-85
2021/07/27 05:21:40;;;;;;;;;;;18.10;79.60;;;;;;5010126;28;19922;-86
2021/07/27 05:24:06;;;;;;;;;;;18.10;80.00;;;;;;5011928;28;19909;-86
2021/07/27 05:26:31;;;;;;;;;;;18.10;80.00;;;;;;5010075;28;19910;-84
2021/07/27 05:28:57;;;;;;;;;;;18.10;80.00;;;;;;5010679;28;20286;-84
2021/07/27 05:31:25;;;;;;;;;;;18.10;79.60;;;;;;5014410;28;19917;-85
2021/07/27 05:33:51;;;;;;;;;;;18.10;80.30;;;;;;5011152;28;20097;-84
2021/07/27 05:36:16;;;;;;;;;;;18.10;79.80;;;;;;5009873;28;19924;-85
2021/07/27 05:38:42;;;;;;;;;;;18.10;80.20;;;;;;5011393;28;20341;-85
2021/07/27 05:41:07;;;;;;;;;;;18.10;79.90;;;;;;5010559;28;19997;-85
2021/07/27 05:43:33;;;;;;;;;;;18.10;80.00;;;;;;5011704;28;19905;-85
2021/07/27 05:45:58;;;;;;;;;;;18.20;80.30;;;;;;5012489;28;19905;-85
2021/07/27 05:48:24;;;;;;;;;;;18.20;79.90;;;;;;5012222;28;19974;-85
2021/07/27 05:50:50;;;;;;;;;;;18.20;80.20;;;;;;5010651;28;19925;-85
2021/07/27 05:53:16;;;;;;;;;;;18.20;80.20;;;;;;5009109;28;19909;-85
2021/07/27 05:55:41;;;;;;;;;;;18.20;79.70;;;;;;5011148;28;20251;-85
2021/07/27 05:58:07;;;;;;;;;;;18.20;80.00;;;;;;5012124;28;19909;-85
2021/07/27 06:00:35;;;;;;;;;;;18.20;80.00;;;;;;5007754;28;19949;-85
2021/07/27 06:03:04;;;;;;;;;;;18.20;79.80;;;;;;5009558;28;19939;-85
2021/07/27 06:05:30;;;;;;;;;;;18.20;80.00;;;;;;5011319;28;20341;-85
2021/07/27 06:07:55;;;;;;;;;;;18.20;80.30;;;;;;5009291;28;19913;-85
2021/07/27 06:10:24;;;;;;;;;;;18.20;80.40;;;;;;5013765;28;19924;-86
2021/07/27 06:12:49;;;;;;;;;;;18.30;80.00;;;;;;5010908;28;19910;-85
2021/07/27 06:15:15;;;;;;;;;;;18.30;80.10;;;;;;5001981;28;19963;-86
2021/07/27 06:17:40;;;;;;;;;;;18.30;80.20;;;;;;4997500;28;20000;-85
2021/07/27 06:20:06;;;;;;;;;;;18.30;80.60;;;;;;4998110;28;19924;-85
2021/07/27 06:22:31;;;;;;;;;;;18.40;81.40;;;;;;4994439;28;20313;-86
2021/07/27 06:24:58;;;;;;;;;;;18.40;80.30;;;;;;4995030;28;19925;-85
2021/07/27 06:27:23;;;;;;;;;;;18.40;80.50;;;;;;4995515;28;19910;-84
2021/07/27 06:29:49;;;;;;;;;;;18.40;80.60;;;;;;4995236;28;20451;-85
2021/07/27 06:32:17;;;;;;;;;;;18.40;80.80;;;;;;5002625;28;19924;-85
2021/07/27 06:34:43;;;;;;;;;;;18.50;81.90;;;;;;4991753;28;20446;-85
2021/07/27 06:37:08;;;;;;;;;;;18.50;81.00;;;;;;5001164;28;19997;-85
2021/07/27 06:39:34;;;;;;;;;;;18.50;81.20;;;;;;4997324;28;20283;-85
2021/07/27 06:41:59;;;;;;;;;;;18.50;81.50;;;;;;4995784;28;19909;-85
2021/07/27 06:44:25;;;;;;;;;;;18.50;80.80;;;;;;4993701;28;19916;-85
2021/07/27 06:46:50;;;;;;;;;;;18.60;80.70;;;;;;5001233;28;20378;-85
2021/07/27 06:49:16;;;;;;;;;;;18.60;81.10;;;;;;5007846;28;19964;-84
2021/07/27 06:51:42;;;;;;;;;;;18.60;80.60;;;;;;5010430;28;20008;-84
2021/07/27 06:54:08;;;;;;;;;;;18.60;80.80;;;;;;5006049;28;19913;-85
2021/07/27 06:56:34;;;;;;;;;;;18.60;81.40;;;;;;4998411;28;20000;-85
2021/07/27 06:59:02;;;;;;;;;;;18.60;81.30;;;;;;5008777;28;20013;-84
2021/07/27 07:01:27;;;;;;;;;;;18.60;81.40;;;;;;4995995;28;19921;-85
2021/07/27 07:03:53;;;;;;;;;;;18.60;81.00;;;;;;4999715;28;19921;-85
2021/07/27 07:06:18;;;;;;;;;;;18.70;82.20;;;;;;5000092;28;19920;-86
2021/07/27 07:08:44;;;;;;;;;;;18.70;81.90;;;;;;5009633;28;20393;-86
2021/07/27 07:11:10;;;;;;;;;;;18.70;81.60;;;;;;5007298;28;19917;-87
2021/07/27 07:13:36;;;;;;;;;;;18.80;81.50;;;;;;5009188;28;19917;-86
2021/07/27 07:16:06;;;;;;;;;;;18.80;81.40;;;;;;5003352;28;19914;-85
2021/07/27 07:18:32;;;;;;;;;;;18.70;81.30;;;;;;4995988;28;19955;-86
2021/07/27 07:20:57;;;;;;;;;;;18.70;81.60;;;;;;5004368;28;19918;-86
2021/07/27 07:23:23;;;;;;;;;;;18.70;81.30;;;;;;5008842;28;19910;-86
2021/07/27 07:25:50;;;;;;;;;;;18.70;82.00;;;;;;5008330;28;20413;-86
2021/07/27 07:28:16;;;;;;;;;;;18.70;81.40;;;;;;5011458;28;19905;-86
2021/07/27 07:30:42;;;;;;;;;;;18.70;82.40;;;;;;5010425;28;19917;-87
2021/07/27 07:33:08;;;;;;;;;;;18.70;82.10;;;;;;5009434;28;19963;-86
2021/07/27 07:35:34;;;;;;;;;;;18.80;82.50;;;;;;5006260;28;20414;-86
2021/07/27 07:37:59;;;;;;;;;;;18.80;82.30;;;;;;5010209;28;20290;-87
2021/07/27 07:40:25;;;;;;;;;;;18.90;82.00;;;;;;5011951;28;19967;-87
2021/07/27 07:42:50;;;;;;;;;;;19.00;83.40;;;;;;5008040;28;20415;-87
2021/07/27 07:45:16;;;;;;;;;;;19.00;82.30;;;;;;5010082;28;19909;-87
2021/07/27 07:47:43;;;;;;;;;;;19.20;82.60;;;;;;5009429;28;19916;-87
2021/07/27 07:50:10;;;;;;;;;;;19.30;82.30;;;;;;5008849;28;20559;-86
2021/07/27 07:52:35;;;;;;;;;;;19.40;81.90;;;;;;5011310;28;19905;-86
2021/07/27 07:55:04;;;;;;;;;;;19.50;81.90;;;;;;5009549;28;19912;-86
2021/07/27 07:57:30;;;;;;;;;;;19.50;81.50;;;;;;5008714;28;19945;-87
2021/07/27 07:59:58;;;;;;;;;;;19.60;81.70;;;;;;5010202;28;19953;-87
2021/07/27 08:02:24;;;;;;;;;;;19.70;81.80;;;;;;5007686;28;19909;-87
2021/07/27 08:04:49;;;;;;;;;;;19.80;81.00;;;;;;5008211;28;20001;-88
2021/07/27 08:07:15;;;;;;;;;;;19.90;81.40;;;;;;5010527;28;20285;-86
2021/07/27 08:09:40;;;;;;;;;;;19.80;80.30;;;;;;5009923;28;20386;-86
2021/07/27 08:12:06;;;;;;;;;;;19.80;80.70;;;;;;5008582;28;19972;-86
2021/07/27 08:14:31;;;;;;;;;;;19.80;80.20;;;;;;5010169;28;19914;-86
2021/07/27 08:16:59;;;;;;;;;;;19.70;80.20;;;;;;5010545;28;19916;-86
2021/07/27 08:19:25;;;;;;;;;;;19.60;80.70;;;;;;5015789;28;20317;-86
2021/07/27 08:21:50;;;;;;;;;;;19.60;81.30;;;;;;5012371;28;19909;-85
2021/07/27 08:24:16;;;;;;;;;;;19.60;82.50;;;;;;5009911;28;19909;-86
2021/07/27 08:26:42;;;;;;;;;;;19.60;81.70;;;;;;5011480;28;19913;-86
2021/07/27 08:29:08;;;;;;;;;;;19.60;81.80;;;;;;5012786;28;19917;-86
2021/07/27 08:31:33;;;;;;;;;;;19.70;81.80;;;;;;5013332;28;19943;-85
2021/07/27 08:33:59;;;;;;;;;;;19.70;81.80;;;;;;5013573;28;19910;-85
2021/07/27 08:36:24;;;;;;;;;;;19.90;81.60;;;;;;5010816;28;19905;-85
2021/07/27 08:38:50;;;;;;;;;;;19.90;81.50;;;;;;5013973;28;19917;-85
2021/07/27 08:41:19;;;;;;;;;;;20.00;81.30;;;;;;5012971;28;19993;-85
2021/07/27 08:43:45;;;;;;;;;;;19.90;81.20;;;;;;5012879;28;20285;-86
2021/07/27 08:46:13;;;;;;;;;;;20.00;81.20;;;;;;5013901;28;19916;-86
2021/07/27 08:48:39;;;;;;;;;;;20.20;81.50;;;;;;5013284;28;19913;-86
2021/07/27 08:51:05;;;;;;;;;;;20.30;81.30;;;;;;5012664;28;19921;-86
2021/07/27 08:53:30;;;;;;;;;;;20.50;81.60;;;;;;5010876;28;19905;-86
2021/07/27 08:55:59;;;;;;;;;;;20.60;80.50;;;;;;5012869;28;20290;-86
2021/07/27 09:01:30;;;;;;;;;;;21.10;80.40;;;;;;5010455;28;20044;-85
2021/07/27 09:03:56;;;;;;;;;;;21.20;79.40;;;;;;5011098;28;20380;-86
2021/07/27 09:06:22;;;;;;;;;;;21.30;78.90;;;;;;5010042;28;20040;-85
2021/07/27 09:08:47;;;;;;;;;;;21.40;78.40;;;;;;5011096;28;20039;-86
2021/07/27 09:11:16;;;;;;;;;;;21.40;79.50;;;;;;5011111;28;20035;-86
2021/07/27 09:13:41;;;;;;;;;;;21.70;80.00;;;;;;5012075;28;19909;-85
2021/07/27 09:16:07;;;;;;;;;;;21.90;78.90;;;;;;5012953;28;19910;-86
2021/07/27 09:18:34;;;;;;;;;;;22.10;78.30;;;;;;5012563;28;19945;-87
2021/07/27 09:21:00;;;;;;;;;;;22.00;76.60;;;;;;5009337;28;20313;-87
2021/07/27 09:23:27;;;;;;;;;;;22.00;76.50;;;;;;5010426;28;19920;-88
2021/07/27 09:25:54;;;;;;;;;;;22.00;76.30;;;;;;4995426;28;19910;-88
2021/07/27 09:28:20;;;;;;;;;;;22.10;76.80;;;;;;5013985;28;19963;-87
2021/07/27 09:30:47;;;;;;;;;;;22.10;76.30;;;;;;5012911;28;19922;-87
2021/07/27 09:33:13;;;;;;;;;;;22.20;75.40;;;;;;5013091;28;19956;-87
2021/07/27 09:35:39;;;;;;;;;;;22.20;74.70;;;;;;5011124;28;19909;-88
2021/07/27 09:38:08;;;;;;;;;;;22.20;74.80;;;;;;5011456;28;19956;-88
2021/07/27 09:40:35;;;;;;;;;;;22.20;75.10;;;;;;5014202;28;19960;-87
2021/07/27 09:43:01;;;;;;;;;;;22.20;75.00;;;;;;5012678;28;19905;-87
2021/07/27 09:45:27;;;;;;;;;;;22.20;74.00;;;;;;5010184;28;19913;-87
2021/07/27 09:47:56;;;;;;;;;;;22.20;75.00;;;;;;5010241;28;19913;-87
2021/07/27 09:50:25;;;;;;;;;;;22.30;74.90;;;;;;5012253;28;20032;-88
2021/07/27 09:52:52;;;;;;;;;;;22.30;72.10;;;;;;5012456;28;19917;-88
2021/07/27 09:55:19;;;;;;;;;;;22.30;73.30;;;;;;5013987;28;19912;-87
2021/07/27 09:57:45;;;;;;;;;;;22.30;72.90;;;;;;5010385;28;20035;-88
2021/07/27 10:00:12;;;;;;;;;;;22.00;72.60;;;;;;5009364;28;20331;-87
2021/07/27 10:02:42;;;;;;;;;;;21.90;73.40;;;;;;5010101;28;19910;-87
2021/07/27 10:05:08;;;;;;;;;;;21.70;73.70;;;;;;5010542;28;20000;-86
2021/07/27 10:07:34;;;;;;;;;;;21.60;74.30;;;;;;5013471;28;19912;-87
2021/07/27 10:10:06;;;;;;;;;;;21.50;74.20;;;;;;5013240;28;19931;-87
2021/07/27 10:12:32;;;;;;;;;;;21.40;74.10;;;;;;5009719;28;20081;-87
2021/07/27 10:15:08;;;;;;;;;;;21.40;75.70;;;;;;5010996;28;19913;-86
2021/07/27 10:17:33;;;;;;;;;;;21.60;75.90;;;;;;5009153;28;19909;-88
2021/07/27 10:20:00;;;;;;;;;;;21.70;75.20;;;;;;5010782;28;20005;-87
2021/07/27 10:22:32;;;;;;;;;;;21.80;74.30;;;;;;5012833;28;19976;-87
2021/07/27 10:24:58;;;;;;;;;;;21.80;73.40;;;;;;5010144;28;19913;-86
2021/07/27 10:27:25;;;;;;;;;;;21.80;73.70;;;;;;5015147;28;19909;-85
2021/07/27 10:30:11;;;;;;;;;;;21.60;73.30;;;;;;5013971;28;20423;-84
2021/07/27 10:32:36;;;;;;;;;;;21.60;73.60;;;;;;4997473;28;20385;-86
2021/07/27 10:35:21;;;;;;;;;;;21.40;72.90;;;;;;5011020;28;19926;-84
2021/07/27 10:37:46;;;;;;;;;;;21.50;74.30;;;;;;5011792;28;19911;-84
2021/07/27 10:40:12;;;;;;;;;;;21.40;73.00;;;;;;5003687;28;20469;-86
2021/07/27 10:42:38;;;;;;;;;;;21.30;72.90;;;;;;5000644;28;20286;-85
2021/07/27 10:45:15;;;;;;;;;;;21.20;73.40;;;;;;5003716;28;19913;-85
2021/07/27 10:47:47;;;;;;;;;;;21.20;74.10;;;;;;5009883;28;19936;-85
2021/07/27 10:50:12;;;;;;;;;;;21.30;73.80;;;;;;5010513;28;20641;-86
2021/07/27 10:52:40;;;;;;;;;;;21.40;74.50;;;;;;5011206;28;20333;-86
2021/07/27 10:55:07;;;;;;;;;;;21.60;73.80;;;;;;5011421;28;20372;-86
2021/07/27 10:57:37;;;;;;;;;;;21.80;75.20;;;;;;5009659;28;20012;-86
2021/07/27 11:00:06;;;;;;;;;;;22.20;75.40;;;;;;5008969;28;19953;-87
2021/07/27 11:02:32;;;;;;;;;;;22.50;74.30;;;;;;5008497;28;19913;-86
2021/07/27 11:04:58;;;;;;;;;;;22.80;73.10;;;;;;5008996;28;19924;-87
2021/07/27 11:07:25;;;;;;;;;;;22.90;72.40;;;;;;5008632;28;19951;-85
2021/07/27 11:09:54;;;;;;;;;;;23.00;72.20;;;;;;5011423;28;19909;-86
2021/07/27 11:12:26;;;;;;;;;;;23.00;70.40;;;;;;5006116;28;19924;-87
2021/07/27 11:15:04;;;;;;;;;;;22.90;70.20;;;;;;5005756;28;19941;-86
2021/07/27 11:17:29;;;;;;;;;;;22.80;68.60;;;;;;4996394;28;19915;-85
2021/07/27 11:19:55;;;;;;;;;;;22.70;69.70;;;;;;5008586;28;19972;-85
2021/07/27 11:22:21;;;;;;;;;;;22.60;67.90;;;;;;5011402;28;19913;-86
2021/07/27 11:24:47;;;;;;;;;;;22.50;68.40;;;;;;5008623;28;20429;-86
2021/07/27 11:27:13;;;;;;;;;;;22.60;68.70;;;;;;5010786;28;20324;-87
2021/07/27 11:29:38;;;;;;;;;;;22.60;68.10;;;;;;4999743;28;19920;-90
2021/07/27 11:32:11;;;;;;;;;;;22.60;68.20;;;;;;5008844;28;20294;-88
2021/07/27 11:34:37;;;;;;;;;;;22.60;68.90;;;;;;5007935;28;19910;-87
2021/07/27 11:37:02;;;;;;;;;;;22.60;67.50;;;;;;5010138;28;19933;-87
2021/07/27 11:39:38;;;;;;;;;;;22.50;67.90;;;;;;5007496;28;19914;-87
2021/07/27 11:42:03;;;;;;;;;;;22.60;69.10;;;;;;4998985;28;20267;-86
2021/07/27 11:44:29;;;;;;;;;;;22.60;69.50;;;;;;4998378;28;19956;-86
2021/07/27 11:46:55;;;;;;;;;;;22.80;69.60;;;;;;5008284;28;19971;-87
2021/07/27 11:49:20;;;;;;;;;;;23.00;68.60;;;;;;5010586;28;19949;-87
2021/07/27 11:51:46;;;;;;;;;;;23.00;68.00;;;;;;5008733;28;20012;-86
2021/07/27 11:54:12;;;;;;;;;;;22.80;68.00;;;;;;5008414;28;19917;-86
2021/07/27 11:56:46;;;;;;;;;;;22.80;68.20;;;;;;5009371;28;19927;-87
2021/07/27 11:59:12;;;;;;;;;;;22.90;69.40;;;;;;4997769;28;20325;-87
2021/07/27 12:01:38;;;;;;;;;;;23.00;68.40;;;;;;4996376;28;19912;-86
2021/07/27 12:04:04;;;;;;;;;;;22.90;67.90;;;;;;5010546;28;19912;-86
2021/07/27 12:06:32;;;;;;;;;;;22.80;67.40;;;;;;5008661;28;20000;-89
2021/07/27 12:09:01;;;;;;;;;;;22.70;66.80;;;;;;4998684;28;19917;-87
2021/07/27 12:11:27;;;;;;;;;;;22.70;66.90;;;;;;4995803;28;19928;-86
2021/07/27 12:13:52;;;;;;;;;;;22.70;67.60;;;;;;4995801;28;19917;-85
2021/07/27 12:16:18;;;;;;;;;;;22.90;66.50;;;;;;5002180;28;19924;-85
2021/07/27 12:18:44;;;;;;;;;;;22.80;64.00;;;;;;4999926;28;20282;-85
2021/07/27 12:21:09;;;;;;;;;;;22.90;65.80;;;;;;5001464;28;19909;-85
2021/07/27 12:23:35;;;;;;;;;;;23.00;66.70;;;;;;5007573;28;19960;-85
2021/07/27 12:26:04;;;;;;;;;;;23.30;66.10;;;;;;5007485;28;19909;-85
2021/07/27 12:28:30;;;;;;;;;;;23.40;64.50;;;;;;5004958;28;19909;-85
2021/07/27 12:30:55;;;;;;;;;;;23.20;63.60;;;;;;5010072;28;19924;-85
2021/07/27 12:33:21;;;;;;;;;;;23.20;64.70;;;;;;5008025;28;19956;-85
2021/07/27 12:35:46;;;;;;;;;;;23.30;64.80;;;;;;5005892;28;19932;-85
2021/07/27 12:38:12;;;;;;;;;;;23.80;66.80;;;;;;5006180;28;20298;-87
2021/07/27 12:40:37;;;;;;;;;;;24.20;67.70;;;;;;5000699;28;19910;-85
2021/07/27 12:43:03;;;;;;;;;;;24.30;63.50;;;;;;5004137;28;19909;-86
2021/07/27 12:45:30;;;;;;;;;;;24.40;64.60;;;;;;5009016;28;19941;-85
2021/07/27 12:47:56;;;;;;;;;;;24.80;65.20;;;;;;5010127;28;19917;-86
2021/07/27 12:50:21;;;;;;;;;;;24.70;62.10;;;;;;5006240;28;19918;-85
2021/07/27 12:52:47;;;;;;;;;;;24.60;62.30;;;;;;5007816;28;19905;-86
2021/07/27 12:55:13;;;;;;;;;;;24.70;63.00;;;;;;5006949;28;20000;-86
2021/07/27 12:57:38;;;;;;;;;;;24.70;63.10;;;;;;5009409;28;19944;-86
2021/07/27 13:00:05;;;;;;;;;;;24.60;61.40;;;;;;5005834;28;20014;-84
2021/07/27 13:02:31;;;;;;;;;;;24.70;62.10;;;;;;4998396;28;19909;-85
2021/07/27 13:04:56;;;;;;;;;;;24.60;62.50;;;;;;4998412;28;19909;-84
2021/07/27 13:07:22;;;;;;;;;;;24.70;61.80;;;;;;5012173;28;20123;-85
2021/07/27 13:09:47;;;;;;;;;;;24.50;62.20;;;;;;5010725;28;20293;-84
2021/07/27 13:12:13;;;;;;;;;;;24.40;61.00;;;;;;5008595;28;19952;-86
2021/07/27 13:14:38;;;;;;;;;;;24.40;62.30;;;;;;5013494;28;19937;-86
2021/07/27 13:17:04;;;;;;;;;;;24.70;62.50;;;;;;5011007;28;19956;-85
2021/07/27 13:19:29;;;;;;;;;;;24.80;61.30;;;;;;5013568;28;19913;-86
2021/07/27 13:21:57;;;;;;;;;;;24.90;61.60;;;;;;5006742;28;19905;-86
2021/07/27 13:24:23;;;;;;;;;;;24.90;62.10;;;;;;5010134;28;19932;-85
2021/07/27 13:26:48;;;;;;;;;;;24.80;60.30;;;;;;5009959;28;19910;-84
2021/07/27 13:29:14;;;;;;;;;;;24.70;61.50;;;;;;5010404;28;19936;-85
2021/07/27 13:31:39;;;;;;;;;;;24.60;61.00;;;;;;5013237;28;19923;-85
2021/07/27 13:34:05;;;;;;;;;;;24.60;61.40;;;;;;5012957;28;19909;-85
2021/07/27 13:36:31;;;;;;;;;;;24.60;59.70;;;;;;5006646;28;19945;-84
2021/07/27 13:38:56;;;;;;;;;;;24.30;59.30;;;;;;5004353;28;20000;-85
2021/07/27 13:41:22;;;;;;;;;;;24.10;60.60;;;;;;4997186;28;20345;-84
2021/07/27 13:43:47;;;;;;;;;;;24.10;62.00;;;;;;5012604;28;19921;-85
2021/07/27 13:46:13;;;;;;;;;;;24.50;62.50;;;;;;5011853;28;19983;-84
2021/07/27 13:48:38;;;;;;;;;;;24.60;60.50;;;;;;5011484;28;20000;-85
2021/07/27 13:51:04;;;;;;;;;;;24.70;60.20;;;;;;5011830;28;19917;-84
2021/07/27 13:53:29;;;;;;;;;;;24.90;61.10;;;;;;5011401;28;19909;-86
2021/07/27 13:55:56;;;;;;;;;;;25.30;61.20;;;;;;5010829;28;19920;-86
2021/07/27 13:58:22;;;;;;;;;;;25.20;58.10;;;;;;5013885;28;20382;-85
2021/07/27 14:00:47;;;;;;;;;;;25.20;60.50;;;;;;5011280;28;19910;-84
2021/07/27 14:03:13;;;;;;;;;;;25.40;59.20;;;;;;5010982;28;19920;-86
2021/07/27 14:05:39;;;;;;;;;;;25.40;57.70;;;;;;5012771;28;19981;-85
2021/07/27 14:08:05;;;;;;;;;;;25.10;58.80;;;;;;5011165;28;19909;-84
2021/07/27 14:10:30;;;;;;;;;;;25.00;59.30;;;;;;5011912;28;20329;-86
2021/07/27 14:12:56;;;;;;;;;;;24.80;58.10;;;;;;5011234;28;19947;-85
2021/07/27 14:15:22;;;;;;;;;;;24.60;59.60;;;;;;5009437;28;19910;-85
2021/07/27 14:17:48;;;;;;;;;;;24.30;59.10;;;;;;5010960;28;19913;-84
2021/07/27 14:20:13;;;;;;;;;;;24.10;59.60;;;;;;5009323;28;19933;-85
2021/07/27 14:22:39;;;;;;;;;;;24.00;60.90;;;;;;5010414;28;20369;-84
2021/07/27 14:25:05;;;;;;;;;;;24.30;62.10;;;;;;5011399;28;19945;-85
2021/07/27 14:27:31;;;;;;;;;;;24.30;60.40;;;;;;5011522;28;19912;-85